createdAt,value
2018-05-15T00:00:11.953Z,43.58
2018-05-15T00:02:40.210Z,41.72
2018-05-15T00:05:07.756Z,42.38
2018-05-15T00:07:36.713Z,44.50
2018-05-15T00:10:04.203Z,43.05
2018-05-15T00:12:31.668Z,45.92
2018-05-15T00:14:59.145Z,43.47
2018-05-15T00:17:27.386Z,40.72
2018-05-15T00:19:54.874Z,45.72
2018-05-15T00:22:23.131Z,42.13
2018-05-15T00:24:50.614Z,42.45
2018-05-15T00:27:18.849Z,41.30
2018-05-15T00:29:46.422Z,44.15
2018-05-15T00:32:13.989Z,43.25
2018-05-15T00:34:41.467Z,44.50
2018-05-15T00:37:09.699Z,48.58
2018-05-15T00:39:37.183Z,48.20
2018-05-15T00:42:04.647Z,49.85
2018-05-15T00:44:32.141Z,53.15
2018-05-15T00:47:00.365Z,52.62
2018-05-15T00:49:27.843Z,51.17
2018-05-15T00:51:55.333Z,53.05
2018-05-15T00:54:22.817Z,52.00
2018-05-15T00:56:50.316Z,52.30
2018-05-15T00:59:17.791Z,54.20
2018-05-15T01:01:46.050Z,55.65
2018-05-15T01:04:13.539Z,58.05
2018-05-15T01:06:41.796Z,54.67
2018-05-15T01:09:09.275Z,50.67
2018-05-15T01:11:36.762Z,52.13
2018-05-15T01:14:04.324Z,54.38
2018-05-15T01:16:31.793Z,52.05
2018-05-15T01:18:59.280Z,52.10
2018-05-15T01:21:26.754Z,50.42
2018-05-15T01:23:55.037Z,53.60
2018-05-15T01:26:23.266Z,52.03
2018-05-15T01:28:50.766Z,48.63
2018-05-15T01:31:18.990Z,49.13
2018-05-15T01:33:46.493Z,52.00
2018-05-15T01:36:13.952Z,50.67
2018-05-15T01:38:42.223Z,47.83
2018-05-15T01:41:09.780Z,48.03
2018-05-15T01:43:37.239Z,45.75
2018-05-15T01:46:06.339Z,43.97
2018-05-15T01:48:33.852Z,48.15
2018-05-15T01:51:01.350Z,46.37
2018-05-15T01:53:28.813Z,45.38
2018-05-15T01:55:56.299Z,42.78
2018-05-15T01:58:23.788Z,44.05
2018-05-15T02:00:51.260Z,45.63
2018-05-15T02:03:18.732Z,46.33
2018-05-15T02:05:46.208Z,41.42
2018-05-15T02:08:13.683Z,45.38
2018-05-15T02:10:41.946Z,46.40
2018-05-15T02:13:10.190Z,41.67
2018-05-15T02:15:37.667Z,42.67
2018-05-15T02:18:05.152Z,46.67
2018-05-15T02:20:33.394Z,42.72
2018-05-15T02:23:00.887Z,43.20
2018-05-15T02:25:29.138Z,42.83
2018-05-15T02:27:56.618Z,43.22
2018-05-15T02:30:24.905Z,43.85
2018-05-15T02:32:52.347Z,39.78
2018-05-15T02:35:19.805Z,38.63
2018-05-15T02:37:48.047Z,41.10
2018-05-15T02:40:15.621Z,38.85
2018-05-15T02:42:43.087Z,39.78
2018-05-15T02:45:10.662Z,36.50
2018-05-15T02:47:38.121Z,36.80
2018-05-15T02:50:06.378Z,34.95
2018-05-15T02:52:33.854Z,36.08
2018-05-15T02:55:02.096Z,35.75
2018-05-15T02:57:29.576Z,34.25
2018-05-15T02:59:57.241Z,34.55
2018-05-15T03:02:24.707Z,33.50
2018-05-15T03:04:52.956Z,37.20
2018-05-15T03:07:20.426Z,33.85
2018-05-15T03:09:47.892Z,33.00
2018-05-15T03:12:17.121Z,34.00
2018-05-15T03:14:44.576Z,35.20
2018-05-15T03:17:12.617Z,34.38
2018-05-15T03:19:40.110Z,35.60
2018-05-15T03:22:08.347Z,35.30
2018-05-15T03:24:35.803Z,34.30
2018-05-15T03:27:03.367Z,35.42
2018-05-15T03:29:32.322Z,34.08
2018-05-15T03:31:59.810Z,36.20
2018-05-15T03:34:27.390Z,36.60
2018-05-15T03:36:54.939Z,36.63
2018-05-15T03:39:25.928Z,39.15
2018-05-15T03:41:53.387Z,37.00
2018-05-15T03:44:20.902Z,36.80
2018-05-15T03:46:48.378Z,35.42
2018-05-15T03:49:16.638Z,34.67
2018-05-15T03:51:44.106Z,33.78
2018-05-15T03:54:11.645Z,33.40
2018-05-15T03:56:39.107Z,31.27
2018-05-15T03:59:06.630Z,36.70
2018-05-15T04:01:45.915Z,34.08
2018-05-15T04:04:25.293Z,33.70
2018-05-15T04:07:05.455Z,33.90
2018-05-15T04:09:32.932Z,34.78
2018-05-15T04:12:00.482Z,36.47
2018-05-15T04:14:27.953Z,36.28
2018-05-15T04:16:55.496Z,38.70
2018-05-15T04:19:22.960Z,38.95
2018-05-15T04:21:50.430Z,38.92
2018-05-15T04:24:17.936Z,37.40
2018-05-15T04:26:46.189Z,34.83
2018-05-15T04:29:13.656Z,36.25
2018-05-15T04:31:41.145Z,38.30
2018-05-15T04:34:08.621Z,38.30
2018-05-15T04:36:36.109Z,34.42
2018-05-15T04:39:03.598Z,35.00
2018-05-15T04:41:31.859Z,34.80
2018-05-15T04:43:59.394Z,34.47
2018-05-15T04:46:27.574Z,36.17
2018-05-15T04:48:55.076Z,37.58
2018-05-15T04:51:23.322Z,35.15
2018-05-15T04:53:50.790Z,33.40
2018-05-15T04:56:18.291Z,35.05
2018-05-15T04:58:45.749Z,35.13
2018-05-15T05:01:13.260Z,35.40
2018-05-15T05:03:40.729Z,33.80
2018-05-15T05:06:08.241Z,32.95
2018-05-15T05:08:35.702Z,33.45
2018-05-15T05:11:03.159Z,31.95
2018-05-15T05:13:30.711Z,31.87
2018-05-15T05:15:58.274Z,32.97
2018-05-15T05:18:25.792Z,33.35
2018-05-15T05:20:53.248Z,30.60
2018-05-15T05:23:21.505Z,31.48
2018-05-15T05:25:48.964Z,29.02
2018-05-15T05:28:16.444Z,30.55
2018-05-15T05:30:44.696Z,32.35
2018-05-15T05:33:12.275Z,30.83
2018-05-15T05:35:39.818Z,31.45
2018-05-15T05:38:07.307Z,29.77
2018-05-15T05:40:34.796Z,31.45
2018-05-15T05:43:02.399Z,28.75
2018-05-15T05:45:29.944Z,29.37
2018-05-15T05:47:57.403Z,28.67
2018-05-15T05:50:24.891Z,29.27
2018-05-15T05:52:52.383Z,29.08
2018-05-15T05:55:19.898Z,28.50
2018-05-15T05:57:47.377Z,30.10
2018-05-15T06:00:15.635Z,30.00
2018-05-15T06:02:43.094Z,29.45
2018-05-15T06:05:10.580Z,31.67
2018-05-15T06:07:38.116Z,29.40
2018-05-15T06:10:06.381Z,29.90
2018-05-15T06:12:33.844Z,25.67
2018-05-15T06:15:01.319Z,25.58
2018-05-15T06:17:29.569Z,25.52
2018-05-15T06:19:57.142Z,24.60
2018-05-15T06:22:24.603Z,24.98
2018-05-15T06:24:52.098Z,24.42
2018-05-15T06:27:19.572Z,23.83
2018-05-15T06:29:47.028Z,24.05
2018-05-15T06:32:14.520Z,22.87
2018-05-15T06:34:41.965Z,23.87
2018-05-15T06:37:09.456Z,26.50
2018-05-15T06:39:36.918Z,26.37
2018-05-15T06:42:05.275Z,25.70
2018-05-15T06:44:32.752Z,25.20
2018-05-15T06:47:00.239Z,24.37
2018-05-15T06:49:27.695Z,25.03
2018-05-15T06:51:55.220Z,24.50
2018-05-15T06:54:22.770Z,25.47
2018-05-15T06:56:50.330Z,24.92
2018-05-15T06:59:17.885Z,23.33
2018-05-15T07:01:45.493Z,24.73
2018-05-15T07:04:12.854Z,25.40
2018-05-15T07:06:40.347Z,26.40
2018-05-15T07:09:07.822Z,23.93
2018-05-15T07:11:36.387Z,24.90
2018-05-15T07:14:03.899Z,26.12
2018-05-15T07:16:31.319Z,24.83
2018-05-15T07:18:58.807Z,23.83
2018-05-15T07:21:27.054Z,24.75
2018-05-15T07:23:54.619Z,23.30
2018-05-15T07:26:22.079Z,22.62
2018-05-15T07:28:49.536Z,23.05
2018-05-15T07:31:17.107Z,23.98
2018-05-15T07:33:44.655Z,24.92
2018-05-15T07:36:12.115Z,24.50
2018-05-15T07:38:39.571Z,24.30
2018-05-15T07:41:07.134Z,24.12
2018-05-15T07:43:34.685Z,24.77
2018-05-15T07:46:02.195Z,25.17
2018-05-15T07:48:29.663Z,27.87
2018-05-15T07:50:58.040Z,26.55
2018-05-15T07:53:25.518Z,24.37
2018-05-15T07:55:52.998Z,23.20
2018-05-15T07:58:20.488Z,23.50
2018-05-15T08:00:48.743Z,25.12
2018-05-15T08:03:16.225Z,24.17
2018-05-15T08:05:44.467Z,23.83
2018-05-15T08:08:11.967Z,21.90
2018-05-15T08:10:39.440Z,22.77
2018-05-15T08:13:06.922Z,21.60
2018-05-15T08:15:34.396Z,22.70
2018-05-15T08:18:01.863Z,20.30
2018-05-15T08:20:29.329Z,19.80
2018-05-15T08:22:56.810Z,18.97
2018-05-15T08:25:25.031Z,19.40
2018-05-15T08:27:52.510Z,18.17
2018-05-15T08:30:19.958Z,18.63
2018-05-15T08:32:47.534Z,17.47
2018-05-15T08:35:14.999Z,15.93
2018-05-15T08:37:42.536Z,15.93
2018-05-15T08:40:10.006Z,14.77
2018-05-15T08:42:37.583Z,14.37
2018-05-15T08:45:05.055Z,13.20
2018-05-15T08:47:33.316Z,11.30
2018-05-15T08:50:00.771Z,10.40
2018-05-15T08:52:28.328Z,9.97
2018-05-15T08:54:55.779Z,10.73
2018-05-15T08:57:23.255Z,11.00
2018-05-15T08:59:50.739Z,11.10
2018-05-15T09:02:18.960Z,10.83
2018-05-15T09:04:46.429Z,10.23
2018-05-15T09:07:14.922Z,10.73
2018-05-15T09:09:42.375Z,10.50
2018-05-15T09:12:09.867Z,10.23
2018-05-15T09:14:38.092Z,10.37
2018-05-15T09:17:05.557Z,10.63
2018-05-15T09:19:33.044Z,9.97
2018-05-15T09:22:00.542Z,10.50
2018-05-15T09:24:28.045Z,10.60
2018-05-15T09:26:55.501Z,11.07
2018-05-15T09:29:23.930Z,9.40
2018-05-15T09:31:51.295Z,9.20
2018-05-15T09:34:18.767Z,8.67
2018-05-15T09:36:46.218Z,8.30
2018-05-15T09:39:13.695Z,8.47
2018-05-15T09:41:41.138Z,9.33
2018-05-15T09:44:08.619Z,9.07
2018-05-15T09:46:36.073Z,8.33
2018-05-15T09:49:03.548Z,9.07
2018-05-15T09:51:31.027Z,9.43
2018-05-15T09:53:59.276Z,8.40
2018-05-15T09:56:26.776Z,8.50
2018-05-15T09:58:55.011Z,11.07
2018-05-15T10:01:22.483Z,9.30
2018-05-15T10:03:50.044Z,9.60
2018-05-15T10:06:17.526Z,9.77
2018-05-15T10:08:45.762Z,9.93
2018-05-15T10:11:13.227Z,7.90
2018-05-15T10:13:40.683Z,9.50
2018-05-15T10:16:08.180Z,10.90
2018-05-15T10:18:36.398Z,10.70
2018-05-15T10:21:03.918Z,10.50
2018-05-15T10:23:32.146Z,10.10
2018-05-15T10:26:00.435Z,10.50
2018-05-15T10:28:27.902Z,9.97
2018-05-15T10:30:55.508Z,8.60
2018-05-15T10:33:22.984Z,8.20
2018-05-15T10:35:50.443Z,9.27
2018-05-15T10:38:17.905Z,9.60
2018-05-15T10:40:45.362Z,11.10
2018-05-15T10:43:12.842Z,10.20
2018-05-15T10:45:40.395Z,8.70
2018-05-15T10:48:07.864Z,8.70
2018-05-15T10:50:35.298Z,8.00
2018-05-15T10:53:02.761Z,7.03
2018-05-15T10:55:30.291Z,7.97
2018-05-15T10:57:57.749Z,7.20
2018-05-15T11:00:25.214Z,7.00
2018-05-15T11:02:52.694Z,6.33
2018-05-15T11:05:20.170Z,7.90
2018-05-15T11:07:47.626Z,7.37
2018-05-15T11:10:15.184Z,8.00
2018-05-15T11:12:42.741Z,9.10
2018-05-15T11:15:10.271Z,8.77
2018-05-15T11:17:37.758Z,7.90
2018-05-15T11:23:23.364Z,7.17
2018-05-15T11:25:50.832Z,6.47
2018-05-15T11:28:18.291Z,6.43
2018-05-15T11:30:45.753Z,5.73
2018-05-15T11:33:13.987Z,5.93
2018-05-15T11:35:41.547Z,5.60
2018-05-15T11:38:08.918Z,6.13
2018-05-15T11:40:36.390Z,7.67
2018-05-15T11:43:03.854Z,8.93
2018-05-15T11:45:31.348Z,8.40
2018-05-15T11:47:59.152Z,8.37
2018-05-15T11:50:27.079Z,8.07
2018-05-15T11:52:54.666Z,8.70
2018-05-15T11:55:21.319Z,8.80
2018-05-15T11:57:48.880Z,9.27
2018-05-15T12:00:16.267Z,9.77
2018-05-15T12:02:43.782Z,10.50
2018-05-15T12:05:11.240Z,11.17
2018-05-15T12:07:38.714Z,13.40
2018-05-15T12:10:06.195Z,14.30
2018-05-15T12:12:33.683Z,14.20
2018-05-15T12:15:02.012Z,13.37
2018-05-15T12:17:29.405Z,13.20
2018-05-15T12:19:57.669Z,12.73
2018-05-15T12:22:26.680Z,9.30
2018-05-15T12:24:54.925Z,8.20
2018-05-15T12:27:22.380Z,7.73
2018-05-15T12:29:49.896Z,7.30
2018-05-15T12:32:18.095Z,6.33
2018-05-15T12:34:45.562Z,5.07
2018-05-15T12:37:13.048Z,4.40
2018-05-15T12:39:40.561Z,4.57
2018-05-15T12:42:08.151Z,5.33
2018-05-15T12:44:35.584Z,6.10
2018-05-15T12:47:03.042Z,5.60
2018-05-15T12:49:30.515Z,5.40
2018-05-15T12:51:57.987Z,6.20
2018-05-15T12:54:25.474Z,6.17
2018-05-15T12:56:53.748Z,6.50
2018-05-15T12:59:21.988Z,7.37
2018-05-15T13:01:49.584Z,7.70
2018-05-15T13:04:16.997Z,7.20
2018-05-15T13:06:44.495Z,7.87
2018-05-15T13:09:11.972Z,7.40
2018-05-15T13:11:39.461Z,7.00
2018-05-15T13:14:07.016Z,7.70
2018-05-15T13:16:34.521Z,7.33
2018-05-15T13:19:01.971Z,7.47
2018-05-15T13:21:29.434Z,7.40
2018-05-15T13:23:56.919Z,8.17
2018-05-15T13:26:25.156Z,7.87
2018-05-15T13:28:52.613Z,7.83
2018-05-15T13:31:20.081Z,7.30
2018-05-15T13:33:47.644Z,7.10
2018-05-15T13:36:15.077Z,7.67
2018-05-15T13:38:42.542Z,7.87
2018-05-15T13:41:10.058Z,7.80
2018-05-15T13:43:37.566Z,7.83
2018-05-15T13:46:05.038Z,7.40
2018-05-15T13:48:32.590Z,6.53
2018-05-15T13:51:00.063Z,6.23
2018-05-15T13:53:27.597Z,5.60
2018-05-15T13:55:55.228Z,4.00
2018-05-15T13:58:22.714Z,3.70
2018-05-15T14:00:50.259Z,3.47
2018-05-15T14:03:17.739Z,3.43
2018-05-15T14:05:45.190Z,3.77
2018-05-15T14:08:12.677Z,3.73
2018-05-15T14:10:41.646Z,4.33
2018-05-15T14:13:09.307Z,3.80
2018-05-15T14:15:36.779Z,3.27
2018-05-15T14:18:04.232Z,2.80
2018-05-15T14:20:31.695Z,2.40
2018-05-15T14:22:59.137Z,2.47
2018-05-15T14:25:26.623Z,2.53
2018-05-15T14:27:54.315Z,2.90
2018-05-15T14:30:21.770Z,3.60
2018-05-15T14:32:49.355Z,3.60
2018-05-15T14:35:16.800Z,2.63
2018-05-15T14:37:44.282Z,3.10
2018-05-15T14:40:11.750Z,3.23
2018-05-15T14:42:51.147Z,3.33
2018-05-15T14:45:18.597Z,2.47
2018-05-15T14:47:46.925Z,3.10
2018-05-15T14:50:14.380Z,3.23
2018-05-15T14:52:41.842Z,2.97
2018-05-15T14:55:09.328Z,2.87
2018-05-15T14:57:36.773Z,2.87
2018-05-15T15:00:04.264Z,2.50
2018-05-15T15:02:32.488Z,2.73
2018-05-15T15:04:59.962Z,2.30
2018-05-15T15:07:27.486Z,2.40
2018-05-15T15:09:54.928Z,2.00
2018-05-15T15:12:22.434Z,2.10
2018-05-15T15:14:49.896Z,2.30
2018-05-15T15:17:17.426Z,2.10
2018-05-15T15:19:44.868Z,2.70
2018-05-15T15:22:12.379Z,2.10
2018-05-15T15:24:39.827Z,3.07
2018-05-15T15:27:07.307Z,2.43
2018-05-15T15:29:34.817Z,2.30
2018-05-15T15:32:03.014Z,2.70
2018-05-15T15:34:30.489Z,3.30
2018-05-15T15:36:57.952Z,2.60
2018-05-15T15:39:25.436Z,2.40
2018-05-15T15:41:54.322Z,2.07
2018-05-15T15:44:22.544Z,2.70
2018-05-15T15:46:50.091Z,2.10
2018-05-15T15:49:17.576Z,2.70
2018-05-15T15:51:45.018Z,2.63
2018-05-15T15:54:12.511Z,2.93
2018-05-15T15:56:39.965Z,2.60
2018-05-15T15:59:08.178Z,1.90
2018-05-15T16:01:35.664Z,2.70
2018-05-15T16:04:03.188Z,2.60
2018-05-15T16:06:30.601Z,2.20
2018-05-15T16:08:58.073Z,3.17
2018-05-15T16:11:25.575Z,2.27
2018-05-15T16:13:53.079Z,2.93
2018-05-15T16:16:20.646Z,2.73
2018-05-15T16:18:48.216Z,3.03
2018-05-15T16:21:15.675Z,2.23
2018-05-15T16:23:43.285Z,3.77
2018-05-15T16:26:10.836Z,3.03
2018-05-15T16:28:38.373Z,3.70
2018-05-15T16:31:05.780Z,3.80
2018-05-15T16:33:33.255Z,3.60
2018-05-15T16:36:00.793Z,4.03
2018-05-15T16:38:28.346Z,3.00
2018-05-15T16:40:56.524Z,3.50
2018-05-15T16:43:23.988Z,3.50
2018-05-15T16:45:51.584Z,3.43
2018-05-15T16:48:19.279Z,3.40
2018-05-15T16:50:46.773Z,3.90
2018-05-15T16:53:14.367Z,3.73
2018-05-15T16:55:41.879Z,3.00
2018-05-15T16:58:09.359Z,2.97
2018-05-15T17:00:36.875Z,3.90
2018-05-15T17:03:05.127Z,3.63
2018-05-15T17:05:32.592Z,3.10
2018-05-15T17:08:00.971Z,3.00
2018-05-15T17:10:28.415Z,3.27
2018-05-15T17:12:55.899Z,3.80
2018-05-15T17:15:23.372Z,3.03
2018-05-15T17:17:50.910Z,2.50
2018-05-15T17:20:18.402Z,3.03
2018-05-15T17:22:45.980Z,3.30
2018-05-15T17:25:13.572Z,3.07
2018-05-15T17:27:41.009Z,2.90
2018-05-15T17:30:08.609Z,2.57
2018-05-15T17:32:36.055Z,2.80
2018-05-15T17:35:06.024Z,2.53
2018-05-15T17:37:34.945Z,2.47
2018-05-15T17:40:02.469Z,3.00
2018-05-15T17:42:29.967Z,4.47
2018-05-15T17:44:57.416Z,3.10
2018-05-15T17:47:24.983Z,3.70
2018-05-15T17:49:52.463Z,3.60
2018-05-15T17:52:20.710Z,2.83
2018-05-15T17:54:48.187Z,4.10
2018-05-15T17:57:15.913Z,3.80
2018-05-15T17:59:44.651Z,3.20
2018-05-15T18:02:12.893Z,3.70
2018-05-15T18:04:40.359Z,3.20
2018-05-15T18:07:07.847Z,4.00
2018-05-15T18:09:35.415Z,4.30
2018-05-15T18:12:03.010Z,3.20
2018-05-15T18:14:30.612Z,3.57
2018-05-15T18:16:58.258Z,3.97
2018-05-15T18:19:25.807Z,3.17
2018-05-15T18:21:53.269Z,3.20
2018-05-15T18:24:20.760Z,3.00
2018-05-15T18:26:48.350Z,3.20
2018-05-15T18:29:16.558Z,2.83
2018-05-15T18:31:44.133Z,3.00
2018-05-15T18:34:11.604Z,3.10
2018-05-15T18:36:39.067Z,3.00
2018-05-15T18:39:07.180Z,2.67
2018-05-15T18:41:34.759Z,3.30
2018-05-15T18:44:02.240Z,2.73
2018-05-15T18:46:29.735Z,2.70
2018-05-15T18:48:57.992Z,2.43
2018-05-15T18:51:25.580Z,2.90
2018-05-15T18:53:53.798Z,3.70
2018-05-15T18:56:21.352Z,2.43
2018-05-15T18:58:48.870Z,2.57
2018-05-15T19:01:17.114Z,3.00
2018-05-15T19:03:44.590Z,2.80
2018-05-15T19:06:12.050Z,3.30
2018-05-15T19:08:39.531Z,2.83
2018-05-15T19:11:07.755Z,2.90
2018-05-15T19:13:35.340Z,3.20
2018-05-15T19:16:02.788Z,3.13
2018-05-15T19:18:30.260Z,3.37
2018-05-15T19:20:57.755Z,3.20
2018-05-15T19:23:25.235Z,3.77
2018-05-15T19:25:52.871Z,3.00
2018-05-15T19:28:20.390Z,3.00
2018-05-15T19:30:47.847Z,3.00
2018-05-15T19:33:17.385Z,2.70
2018-05-15T19:35:44.833Z,2.87
2018-05-15T19:38:12.379Z,3.63
2018-05-15T19:40:41.742Z,3.33
2018-05-15T19:43:09.221Z,3.00
2018-05-15T19:45:36.764Z,3.03
2018-05-15T19:48:04.302Z,3.30
2018-05-15T19:50:31.869Z,3.30
2018-05-15T19:52:59.324Z,3.33
2018-05-15T19:55:26.802Z,3.45
2018-05-15T19:57:54.246Z,3.30
2018-05-15T20:00:21.732Z,3.27
2018-05-15T20:02:49.244Z,3.00
2018-05-15T20:05:16.722Z,3.20
2018-05-15T20:07:44.198Z,3.30
2018-05-15T20:10:11.686Z,2.70
2018-05-15T20:12:39.167Z,2.50
2018-05-15T20:15:07.440Z,2.67
2018-05-15T20:17:35.647Z,2.63
2018-05-15T20:20:03.104Z,3.40
2018-05-15T20:22:30.591Z,2.93
2018-05-15T20:24:58.051Z,2.77
2018-05-15T20:27:25.519Z,3.30
2018-05-15T20:29:53.758Z,3.60
2018-05-15T20:32:21.230Z,3.30
2018-05-15T20:34:48.745Z,3.00
2018-05-15T20:37:16.175Z,2.78
2018-05-15T20:39:43.659Z,4.37
2018-05-15T20:42:11.289Z,4.60
2018-05-15T20:44:39.433Z,4.20
2018-05-15T20:47:06.918Z,5.15
2018-05-15T20:49:35.148Z,4.90
2018-05-15T20:52:02.622Z,4.23
2018-05-15T20:54:30.080Z,4.77
2018-05-15T20:56:58.051Z,4.60
2018-05-15T20:59:25.571Z,4.55
2018-05-15T21:01:53.930Z,4.10
2018-05-15T21:04:21.409Z,5.12
2018-05-15T21:06:49.671Z,5.30
2018-05-15T21:09:17.245Z,5.15
2018-05-15T21:11:45.506Z,4.85
2018-05-15T21:14:13.840Z,6.20
2018-05-15T21:16:41.339Z,6.10
2018-05-15T21:19:08.796Z,4.70
2018-05-15T21:21:36.270Z,6.03
2018-05-15T21:24:04.523Z,5.63
2018-05-15T21:26:32.776Z,5.77
2018-05-15T21:29:00.268Z,6.15
2018-05-15T21:31:27.731Z,6.70
2018-05-15T21:33:56.022Z,11.30
2018-05-15T21:36:24.253Z,6.90
2018-05-15T21:38:51.726Z,7.80
2018-05-15T21:41:19.195Z,7.30
2018-05-15T21:43:46.699Z,7.07
2018-05-15T21:46:14.164Z,7.68
2018-05-15T21:48:41.647Z,7.07
2018-05-15T21:51:09.155Z,7.27
2018-05-15T21:53:36.683Z,7.60
2018-05-15T21:56:04.246Z,7.23
2018-05-15T21:58:31.741Z,7.22
2018-05-15T22:00:59.963Z,8.07
2018-05-15T22:03:27.433Z,8.10
2018-05-15T22:05:55.005Z,8.40
2018-05-15T22:08:22.581Z,8.50
2018-05-15T22:10:50.818Z,9.48
2018-05-15T22:13:30.144Z,9.13
2018-05-15T22:16:09.619Z,9.55
2018-05-15T22:18:49.047Z,9.07
2018-05-15T22:21:28.499Z,9.52
2018-05-15T22:23:55.537Z,10.35
2018-05-15T22:26:22.999Z,9.70
2018-05-15T22:28:50.461Z,10.25
2018-05-15T22:31:18.719Z,10.50
2018-05-15T22:33:46.193Z,9.68
2018-05-15T22:36:13.855Z,11.05
2018-05-15T22:38:41.334Z,10.50
2018-05-15T22:41:09.577Z,9.95
2018-05-15T22:43:37.066Z,11.73
2018-05-15T22:46:05.319Z,10.10
2018-05-15T22:48:32.796Z,10.88
2018-05-15T22:51:01.128Z,11.60
2018-05-15T22:53:28.531Z,12.25
2018-05-15T22:55:56.779Z,10.73
2018-05-15T22:58:24.253Z,10.55
2018-05-15T23:00:51.729Z,11.35
2018-05-15T23:03:20.083Z,11.20
2018-05-15T23:05:47.552Z,13.35
2018-05-15T23:08:15.038Z,14.52
2018-05-15T23:10:43.278Z,11.97
2018-05-15T23:13:10.752Z,14.65
2018-05-15T23:15:38.245Z,12.88
2018-05-15T23:18:05.719Z,14.70
2018-05-15T23:20:33.186Z,14.60
2018-05-15T23:23:00.666Z,14.38
2018-05-15T23:25:28.226Z,13.68
2018-05-15T23:27:57.219Z,15.05
2018-05-15T23:30:24.670Z,13.38
2018-05-15T23:32:52.153Z,13.75
2018-05-15T23:35:20.378Z,14.43
2018-05-15T23:37:47.895Z,14.60
2018-05-15T23:40:16.150Z,14.50
2018-05-15T23:42:43.618Z,14.02
2018-05-15T23:45:11.102Z,14.87
2018-05-15T23:47:38.557Z,15.95
2018-05-15T23:50:06.038Z,16.42
2018-05-15T23:52:33.514Z,15.23
2018-05-15T23:55:01.000Z,15.45
2018-05-15T23:57:28.462Z,14.77
2018-05-15T23:59:55.933Z,14.68
